sensor_id;sensor_type;location;lat;lon;timestamp;pressure;altitude;pressure_sealevel;temperature;humidity
29371;BME280;16357;52.188;7.838;2022-08-21T00:01:49;100984.66;;;19.82;51.66
29371;BME280;16357;52.188;7.838;2022-08-21T00:04:16;100978.38;;;19.82;51.63
29371;BME280;16357;52.188;7.838;2022-08-21T00:06:49;100980.09;;;19.83;51.71
29371;BME280;16357;52.188;7.838;2022-08-21T00:09:15;100973.56;;;19.84;51.66
29371;BME280;16357;52.188;7.838;2022-08-21T00:11:43;100970.03;;;19.83;51.59
29371;BME280;16357;52.188;7.838;2022-08-21T00:14:11;100967.06;;;19.85;51.54
29371;BME280;16357;52.188;7.838;2022-08-21T00:16:37;100955.97;;;19.86;51.39
29371;BME280;16357;52.188;7.838;2022-08-21T00:19:05;100958.47;;;19.88;51.43
29371;BME280;16357;52.188;7.838;2022-08-21T00:21:33;100964.56;;;19.90;50.99
29371;BME280;16357;52.188;7.838;2022-08-21T00:24:00;100962.66;;;19.90;51.09
29371;BME280;16357;52.188;7.838;2022-08-21T00:26:27;100961.63;;;19.91;51.11
29371;BME280;16357;52.188;7.838;2022-08-21T00:28:54;100956.19;;;19.91;51.33
29371;BME280;16357;52.188;7.838;2022-08-21T00:31:21;100954.09;;;19.93;51.32
29371;BME280;16357;52.188;7.838;2022-08-21T00:33:48;100956.59;;;19.95;51.30
29371;BME280;16357;52.188;7.838;2022-08-21T00:36:14;100958.28;;;19.96;51.36
29371;BME280;16357;52.188;7.838;2022-08-21T00:38:41;100946.31;;;19.97;51.39
29371;BME280;16357;52.188;7.838;2022-08-21T00:41:09;100955.13;;;19.99;51.46
29371;BME280;16357;52.188;7.838;2022-08-21T00:43:56;100947.59;;;20.01;51.54
29371;BME280;16357;52.188;7.838;2022-08-21T00:46:23;100954.69;;;20.02;51.84
29371;BME280;16357;52.188;7.838;2022-08-21T00:48:53;100952.59;;;20.04;51.71
29371;BME280;16357;52.188;7.838;2022-08-21T00:51:35;100945.88;;;20.07;51.55
29371;BME280;16357;52.188;7.838;2022-08-21T00:54:04;100945.88;;;20.07;51.78
29371;BME280;16357;52.188;7.838;2022-08-21T00:56:36;100936.84;;;20.06;51.59
29371;BME280;16357;52.188;7.838;2022-08-21T00:59:03;100939.56;;;20.06;51.80
29371;BME280;16357;52.188;7.838;2022-08-21T01:01:30;100940.63;;;20.05;51.49
29371;BME280;16357;52.188;7.838;2022-08-21T01:03:57;100946.50;;;20.02;51.67
29371;BME280;16357;52.188;7.838;2022-08-21T01:06:24;100943.16;;;20.00;51.74
29371;BME280;16357;52.188;7.838;2022-08-21T01:08:50;100954.50;;;19.97;51.64
29371;BME280;16357;52.188;7.838;2022-08-21T01:11:18;100950.31;;;19.94;51.97
29371;BME280;16357;52.188;7.838;2022-08-21T01:13:44;100946.13;;;19.92;52.14
29371;BME280;16357;52.188;7.838;2022-08-21T01:16:16;100945.28;;;19.91;51.96
29371;BME280;16357;52.188;7.838;2022-08-21T01:18:44;100938.38;;;19.89;52.32
29371;BME280;16357;52.188;7.838;2022-08-21T01:21:14;100943.81;;;19.89;52.30
29371;BME280;16357;52.188;7.838;2022-08-21T01:23:44;100946.97;;;19.86;52.38
29371;BME280;16357;52.188;7.838;2022-08-21T01:26:13;100945.09;;;19.86;52.47
29371;BME280;16357;52.188;7.838;2022-08-21T01:28:52;100952.19;;;19.87;52.38
29371;BME280;16357;52.188;7.838;2022-08-21T01:31:22;100945.91;;;19.87;52.49
29371;BME280;16357;52.188;7.838;2022-08-21T01:33:52;100945.09;;;19.86;52.71
29371;BME280;16357;52.188;7.838;2022-08-21T01:36:18;100946.75;;;19.87;52.80
29371;BME280;16357;52.188;7.838;2022-08-21T01:38:45;100952.44;;;19.86;52.47
29371;BME280;16357;52.188;7.838;2022-08-21T01:41:14;100952.44;;;19.86;52.69
29371;BME280;16357;52.188;7.838;2022-08-21T01:43:42;100950.72;;;19.85;52.63
29371;BME280;16357;52.188;7.838;2022-08-21T01:46:09;100947.19;;;19.84;52.82
29371;BME280;16357;52.188;7.838;2022-08-21T01:48:36;100949.06;;;19.84;52.87
29371;BME280;16357;52.188;7.838;2022-08-21T01:51:04;100947.41;;;19.83;52.90
29371;BME280;16357;52.188;7.838;2022-08-21T01:53:32;100944.69;;;19.83;52.81
29371;BME280;16357;52.188;7.838;2022-08-21T01:56:04;100942.38;;;19.80;53.03
29371;BME280;16357;52.188;7.838;2022-08-21T01:58:38;100935.47;;;19.77;53.07
29371;BME280;16357;52.188;7.838;2022-08-21T02:01:04;100949.50;;;19.74;52.92
29371;BME280;16357;52.188;7.838;2022-08-21T02:03:31;100949.94;;;19.71;53.22
29371;BME280;16357;52.188;7.838;2022-08-21T02:06:05;100951.59;;;19.65;53.13
29371;BME280;16357;52.188;7.838;2022-08-21T02:08:33;100953.03;;;19.61;53.19
29371;BME280;16357;52.188;7.838;2022-08-21T02:11:00;100950.75;;;19.58;53.22
29371;BME280;16357;52.188;7.838;2022-08-21T02:13:27;100943.19;;;19.53;53.46
29371;BME280;16357;52.188;7.838;2022-08-21T02:15:54;100950.97;;;19.50;53.66
29371;BME280;16357;52.188;7.838;2022-08-21T02:18:20;100947.59;;;19.48;53.73
29371;BME280;16357;52.188;7.838;2022-08-21T02:20:48;100950.75;;;19.45;53.76
29371;BME280;16357;52.188;7.838;2022-08-21T02:23:22;100950.97;;;19.43;53.57
29371;BME280;16357;52.188;7.838;2022-08-21T02:25:54;100952.25;;;19.41;54.05
29371;BME280;16357;52.188;7.838;2022-08-21T02:28:20;100947.81;;;19.40;54.10
29371;BME280;16357;52.188;7.838;2022-08-21T02:30:48;100945.53;;;19.37;54.23
29371;BME280;16357;52.188;7.838;2022-08-21T02:33:15;100943.00;;;19.35;54.53
29371;BME280;16357;52.188;7.838;2022-08-21T02:35:44;100950.34;;;19.35;54.07
29371;BME280;16357;52.188;7.838;2022-08-21T02:38:14;100945.31;;;19.32;54.07
29371;BME280;16357;52.188;7.838;2022-08-21T02:40:43;100947.41;;;19.29;53.90
29371;BME280;16357;52.188;7.838;2022-08-21T02:43:17;100945.94;;;19.27;54.15
29371;BME280;16357;52.188;7.838;2022-08-21T02:45:45;100949.91;;;19.24;54.40
29371;BME280;16357;52.188;7.838;2022-08-21T02:48:14;100946.78;;;19.21;54.45
29371;BME280;16357;52.188;7.838;2022-08-21T02:50:47;100951.56;;;19.19;53.90
29371;BME280;16357;52.188;7.838;2022-08-21T02:53:15;100945.94;;;19.14;54.02
29371;BME280;16357;52.188;7.838;2022-08-21T02:55:47;100938.41;;;19.09;54.00
29371;BME280;16357;52.188;7.838;2022-08-21T02:58:17;100942.78;;;19.03;53.95
29371;BME280;16357;52.188;7.838;2022-08-21T03:00:44;100937.34;;;18.97;54.31
29371;BME280;16357;52.188;7.838;2022-08-21T03:03:11;100930.84;;;18.91;54.40
29371;BME280;16357;52.188;7.838;2022-08-21T03:05:39;100927.91;;;18.86;54.59
29371;BME280;16357;52.188;7.838;2022-08-21T03:08:08;100926.88;;;18.80;54.53
29371;BME280;16357;52.188;7.838;2022-08-21T03:10:40;100932.06;;;18.75;54.81
29371;BME280;16357;52.188;7.838;2022-08-21T03:13:07;100934.53;;;18.70;54.86
29371;BME280;16357;52.188;7.838;2022-08-21T03:15:34;100923.44;;;18.65;55.06
29371;BME280;16357;52.188;7.838;2022-08-21T03:18:01;100924.88;;;18.61;55.33
29371;BME280;16357;52.188;7.838;2022-08-21T03:20:28;100925.72;;;18.55;55.46
29371;BME280;16357;52.188;7.838;2022-08-21T03:22:55;100925.28;;;18.51;55.58
29371;BME280;16357;52.188;7.838;2022-08-21T03:25:23;100932.16;;;18.47;55.46
29371;BME280;16357;52.188;7.838;2022-08-21T03:28:07;100927.34;;;18.42;55.21
29371;BME280;16357;52.188;7.838;2022-08-21T03:30:38;100936.94;;;18.38;55.64
29371;BME280;16357;52.188;7.838;2022-08-21T03:33:04;100927.53;;;18.34;55.85
29371;BME280;16357;52.188;7.838;2022-08-21T03:35:31;100921.03;;;18.29;55.72
29371;BME280;16357;52.188;7.838;2022-08-21T03:37:58;100923.31;;;18.25;55.98
29371;BME280;16357;52.188;7.838;2022-08-21T03:40:25;100932.91;;;18.21;55.80
29371;BME280;16357;52.188;7.838;2022-08-21T03:42:52;100926.22;;;18.17;56.07
29371;BME280;16357;52.188;7.838;2022-08-21T03:45:19;100935.78;;;18.13;56.17
29371;BME280;16357;52.188;7.838;2022-08-21T03:47:57;100936.19;;;18.10;55.87
29371;BME280;16357;52.188;7.838;2022-08-21T03:50:26;100928.66;;;18.05;56.22
29371;BME280;16357;52.188;7.838;2022-08-21T03:52:55;100930.09;;;18.01;56.63
29371;BME280;16357;52.188;7.838;2022-08-21T03:55:22;100935.91;;;17.98;56.87
29371;BME280;16357;52.188;7.838;2022-08-21T03:57:48;100935.47;;;17.94;56.70
29371;BME280;16357;52.188;7.838;2022-08-21T04:00:16;100942.16;;;17.92;56.61
29371;BME280;16357;52.188;7.838;2022-08-21T04:02:43;100938.16;;;17.88;56.76
29371;BME280;16357;52.188;7.838;2022-08-21T04:05:11;100950.25;;;17.85;56.80
29371;BME280;16357;52.188;7.838;2022-08-21T04:07:38;100946.25;;;17.81;56.78
29371;BME280;16357;52.188;7.838;2022-08-21T04:10:06;100943.09;;;17.77;56.57
29371;BME280;16357;52.188;7.838;2022-08-21T04:12:33;100948.88;;;17.74;57.19
29371;BME280;16357;52.188;7.838;2022-08-21T04:14:59;100949.50;;;17.70;57.11
29371;BME280;16357;52.188;7.838;2022-08-21T04:17:28;100951.75;;;17.66;57.01
29371;BME280;16357;52.188;7.838;2022-08-21T04:19:54;100951.31;;;17.63;57.02
29371;BME280;16357;52.188;7.838;2022-08-21T04:22:21;100951.72;;;17.60;57.13
29371;BME280;16357;52.188;7.838;2022-08-21T04:24:48;100954.19;;;17.54;57.52
29371;BME280;16357;52.188;7.838;2022-08-21T04:27:15;100961.66;;;17.52;57.16
29371;BME280;16357;52.188;7.838;2022-08-21T04:29:42;100953.09;;;17.49;56.69
29371;BME280;16357;52.188;7.838;2022-08-21T04:32:08;100957.03;;;17.46;57.55
29371;BME280;16357;52.188;7.838;2022-08-21T04:34:35;100955.75;;;17.42;57.89
29371;BME280;16357;52.188;7.838;2022-08-21T04:37:01;100958.84;;;17.39;57.91
29371;BME280;16357;52.188;7.838;2022-08-21T04:39:28;100959.03;;;17.38;57.79
29371;BME280;16357;52.188;7.838;2022-08-21T04:41:55;100964.84;;;17.34;58.04
29371;BME280;16357;52.188;7.838;2022-08-21T04:44:21;100961.53;;;17.32;57.95
29371;BME280;16357;52.188;7.838;2022-08-21T04:46:48;100959.81;;;17.31;58.04
29371;BME280;16357;52.188;7.838;2022-08-21T04:49:14;100969.84;;;17.31;58.46
29371;BME280;16357;52.188;7.838;2022-08-21T04:51:41;100966.28;;;17.30;58.23
29371;BME280;16357;52.188;7.838;2022-08-21T04:54:15;100958.81;;;17.32;57.94
29371;BME280;16357;52.188;7.838;2022-08-21T04:56:52;100959.66;;;17.33;57.95
29371;BME280;16357;52.188;7.838;2022-08-21T04:59:28;100957.78;;;17.33;57.91
29371;BME280;16357;52.188;7.838;2022-08-21T05:01:57;100965.06;;;17.33;58.62
29371;BME280;16357;52.188;7.838;2022-08-21T05:04:27;100963.84;;;17.36;58.16
29371;BME280;16357;52.188;7.838;2022-08-21T05:06:57;100962.78;;;17.37;58.35
29371;BME280;16357;52.188;7.838;2022-08-21T05:09:27;100977.84;;;17.39;58.79
29371;BME280;16357;52.188;7.838;2022-08-21T05:11:54;100962.41;;;17.40;58.91
29371;BME280;16357;52.188;7.838;2022-08-21T05:14:21;100972.84;;;17.43;58.74
29371;BME280;16357;52.188;7.838;2022-08-21T05:16:48;100968.06;;;17.45;58.99
29371;BME280;16357;52.188;7.838;2022-08-21T05:19:14;100969.56;;;17.47;59.06
29371;BME280;16357;52.188;7.838;2022-08-21T05:21:43;100968.97;;;17.52;59.03
29371;BME280;16357;52.188;7.838;2022-08-21T05:24:10;100969.63;;;17.54;59.04
29371;BME280;16357;52.188;7.838;2022-08-21T05:26:37;100965.47;;;17.58;59.13
29371;BME280;16357;52.188;7.838;2022-08-21T05:29:13;100971.34;;;17.62;59.27
29371;BME280;16357;52.188;7.838;2022-08-21T05:31:41;100973.44;;;17.66;59.15
29371;BME280;16357;52.188;7.838;2022-08-21T05:34:08;100978.28;;;17.71;59.35
29371;BME280;16357;52.188;7.838;2022-08-21T05:36:35;100980.22;;;17.77;59.57
29371;BME280;16357;52.188;7.838;2022-08-21T05:39:02;100978.81;;;17.81;59.66
29371;BME280;16357;52.188;7.838;2022-08-21T05:41:28;100979.06;;;17.86;59.41
29371;BME280;16357;52.188;7.838;2022-08-21T05:43:55;100977.25;;;17.93;59.72
29371;BME280;16357;52.188;7.838;2022-08-21T05:46:21;100978.31;;;17.99;59.62
29371;BME280;16357;52.188;7.838;2022-08-21T05:48:48;100979.22;;;18.06;59.78
29371;BME280;16357;52.188;7.838;2022-08-21T05:51:15;100968.56;;;18.11;59.68
29371;BME280;16357;52.188;7.838;2022-08-21T05:53:42;100979.47;;;18.18;59.70
29371;BME280;16357;52.188;7.838;2022-08-21T05:56:10;100973.22;;;18.24;59.70
29371;BME280;16357;52.188;7.838;2022-08-21T05:58:37;100970.56;;;18.31;59.96
29371;BME280;16357;52.188;7.838;2022-08-21T06:01:05;100976.00;;;18.37;59.72
29371;BME280;16357;52.188;7.838;2022-08-21T06:03:34;100974.16;;;18.45;59.78
29371;BME280;16357;52.188;7.838;2022-08-21T06:06:01;100975.22;;;18.50;59.85
29371;BME280;16357;52.188;7.838;2022-08-21T06:08:28;100975.25;;;18.57;59.70
29371;BME280;16357;52.188;7.838;2022-08-21T06:10:57;100974.44;;;18.63;59.03
29371;BME280;16357;52.188;7.838;2022-08-21T06:13:24;100970.06;;;18.69;59.62
29371;BME280;16357;52.188;7.838;2022-08-21T06:16:02;100977.22;;;18.76;59.06
29371;BME280;16357;52.188;7.838;2022-08-21T06:18:29;100967.41;;;18.82;59.27
29371;BME280;16357;52.188;7.838;2022-08-21T06:20:55;100972.06;;;18.88;59.37
29371;BME280;16357;52.188;7.838;2022-08-21T06:23:23;100973.75;;;18.96;59.19
29371;BME280;16357;52.188;7.838;2022-08-21T06:25:58;100976.66;;;19.01;59.24
29371;BME280;16357;52.188;7.838;2022-08-21T06:28:25;100973.13;;;19.07;59.65
29371;BME280;16357;52.188;7.838;2022-08-21T06:30:52;100976.69;;;19.14;59.71
29371;BME280;16357;52.188;7.838;2022-08-21T06:33:19;100975.63;;;19.22;59.86
29371;BME280;16357;52.188;7.838;2022-08-21T06:35:46;100973.56;;;19.30;59.63
29371;BME280;16357;52.188;7.838;2022-08-21T06:38:13;100969.59;;;19.40;59.54
29371;BME280;16357;52.188;7.838;2022-08-21T06:40:40;100975.44;;;19.50;59.66
29371;BME280;16357;52.188;7.838;2022-08-21T06:43:15;100974.63;;;19.63;59.08
29371;BME280;16357;52.188;7.838;2022-08-21T06:45:43;100977.56;;;19.74;59.24
29371;BME280;16357;52.188;7.838;2022-08-21T06:48:09;100973.97;;;19.87;58.80
29371;BME280;16357;52.188;7.838;2022-08-21T06:50:40;100970.41;;;20.00;58.29
29371;BME280;16357;52.188;7.838;2022-08-21T06:53:10;100975.59;;;20.15;58.22
29371;BME280;16357;52.188;7.838;2022-08-21T06:55:38;100966.56;;;20.28;57.88
29371;BME280;16357;52.188;7.838;2022-08-21T06:58:05;100961.88;;;20.42;57.85
29371;BME280;16357;52.188;7.838;2022-08-21T07:00:32;100963.75;;;20.54;57.60
29371;BME280;16357;52.188;7.838;2022-08-21T07:02:59;100958.88;;;20.70;57.28
29371;BME280;16357;52.188;7.838;2022-08-21T07:05:27;100955.00;;;20.84;56.84
29371;BME280;16357;52.188;7.838;2022-08-21T07:07:55;100958.25;;;20.99;56.72
29371;BME280;16357;52.188;7.838;2022-08-21T07:10:24;100959.00;;;21.13;56.42
29371;BME280;16357;52.188;7.838;2022-08-21T07:12:52;100953.44;;;21.26;56.16
29371;BME280;16357;52.188;7.838;2022-08-21T07:15:25;100954.19;;;21.40;54.96
29371;BME280;16357;52.188;7.838;2022-08-21T07:17:52;100952.19;;;21.54;55.25
29371;BME280;16357;52.188;7.838;2022-08-21T07:20:18;100955.63;;;21.68;54.80
29371;BME280;16357;52.188;7.838;2022-08-21T07:22:45;100960.97;;;21.81;54.59
29371;BME280;16357;52.188;7.838;2022-08-21T07:25:11;100958.56;;;21.91;54.46
29371;BME280;16357;52.188;7.838;2022-08-21T07:27:38;100962.22;;;22.04;54.38
29371;BME280;16357;52.188;7.838;2022-08-21T07:30:05;100956.81;;;22.16;53.74
29371;BME280;16357;52.188;7.838;2022-08-21T07:32:32;100952.31;;;22.28;53.43
29371;BME280;16357;52.188;7.838;2022-08-21T07:34:58;100953.19;;;22.40;52.93
29371;BME280;16357;52.188;7.838;2022-08-21T07:37:25;100950.75;;;22.50;52.70
29371;BME280;16357;52.188;7.838;2022-08-21T07:39:51;100950.19;;;22.60;52.21
29371;BME280;16357;52.188;7.838;2022-08-21T07:42:18;100953.22;;;22.70;52.50
29371;BME280;16357;52.188;7.838;2022-08-21T07:44:44;100948.25;;;22.79;51.89
29371;BME280;16357;52.188;7.838;2022-08-21T07:47:14;100946.88;;;22.88;51.50
29371;BME280;16357;52.188;7.838;2022-08-21T07:50:01;100946.09;;;22.99;51.35
29371;BME280;16357;52.188;7.838;2022-08-21T07:52:30;100946.59;;;23.08;50.85
29371;BME280;16357;52.188;7.838;2022-08-21T07:54:57;100947.94;;;23.17;50.72
29371;BME280;16357;52.188;7.838;2022-08-21T07:57:28;100950.91;;;23.28;50.43
29371;BME280;16357;52.188;7.838;2022-08-21T07:59:55;100946.75;;;23.37;49.85
29371;BME280;16357;52.188;7.838;2022-08-21T08:02:26;100942.63;;;23.46;49.81
29371;BME280;16357;52.188;7.838;2022-08-21T08:04:53;100935.47;;;23.57;49.21
29371;BME280;16357;52.188;7.838;2022-08-21T08:07:20;100942.03;;;23.67;49.42
29371;BME280;16357;52.188;7.838;2022-08-21T08:09:46;100938.94;;;23.76;49.39
29371;BME280;16357;52.188;7.838;2022-08-21T08:12:13;100934.75;;;23.85;48.58
29371;BME280;16357;52.188;7.838;2022-08-21T08:14:39;100929.75;;;23.94;48.24
29371;BME280;16357;52.188;7.838;2022-08-21T08:17:05;100925.34;;;24.04;47.96
29371;BME280;16357;52.188;7.838;2022-08-21T08:19:32;100943.88;;;24.14;47.52
29371;BME280;16357;52.188;7.838;2022-08-21T08:21:58;100921.34;;;24.24;47.70
29371;BME280;16357;52.188;7.838;2022-08-21T08:24:25;100931.44;;;24.35;46.83
29371;BME280;16357;52.188;7.838;2022-08-21T08:26:51;100921.16;;;24.42;46.50
29371;BME280;16357;52.188;7.838;2022-08-21T08:29:21;100929.84;;;24.51;46.71
29371;BME280;16357;52.188;7.838;2022-08-21T08:31:48;100922.09;;;24.60;46.09
29371;BME280;16357;52.188;7.838;2022-08-21T08:34:16;100922.75;;;24.67;46.43
29371;BME280;16357;52.188;7.838;2022-08-21T08:36:50;100922.38;;;24.75;46.23
29371;BME280;16357;52.188;7.838;2022-08-21T08:39:17;100908.50;;;24.82;46.30
29371;BME280;16357;52.188;7.838;2022-08-21T08:41:59;100909.50;;;24.92;46.27
29371;BME280;16357;52.188;7.838;2022-08-21T08:44:55;100913.25;;;25.03;46.12
29371;BME280;16357;52.188;7.838;2022-08-21T08:47:24;100910.34;;;25.10;46.15
29371;BME280;16357;52.188;7.838;2022-08-21T08:50:11;100899.59;;;25.20;46.23
29371;BME280;16357;52.188;7.838;2022-08-21T08:52:47;100911.28;;;25.32;45.60
29371;BME280;16357;52.188;7.838;2022-08-21T08:55:16;100906.47;;;25.39;45.79
29371;BME280;16357;52.188;7.838;2022-08-21T08:57:46;100904.69;;;25.50;45.36
29371;BME280;16357;52.188;7.838;2022-08-21T09:00:18;100911.19;;;25.61;44.81
29371;BME280;16357;52.188;7.838;2022-08-21T09:02:47;100900.34;;;25.71;43.63
29371;BME280;16357;52.188;7.838;2022-08-21T09:05:26;100903.81;;;25.83;44.03
29371;BME280;16357;52.188;7.838;2022-08-21T09:19:53;100890.53;;;26.19;42.42
29371;BME280;16357;52.188;7.838;2022-08-21T09:27:39;100881.06;;;26.32;41.52
29371;BME280;16357;52.188;7.838;2022-08-21T09:30:08;100875.09;;;26.40;41.66
29371;BME280;16357;52.188;7.838;2022-08-21T09:32:37;100875.50;;;26.49;41.03
29371;BME280;16357;52.188;7.838;2022-08-21T09:35:14;100881.44;;;26.63;41.11
29371;BME280;16357;52.188;7.838;2022-08-21T09:40:33;100876.47;;;26.92;40.42
29371;BME280;16357;52.188;7.838;2022-08-21T09:45:41;100867.84;;;27.15;39.89
29371;BME280;16357;52.188;7.838;2022-08-21T09:48:28;100863.84;;;27.28;39.99
29371;BME280;16357;52.188;7.838;2022-08-21T09:51:07;100859.47;;;27.38;39.65
29371;BME280;16357;52.188;7.838;2022-08-21T09:53:34;100855.16;;;27.47;41.15
29371;BME280;16357;52.188;7.838;2022-08-21T09:56:17;100868.41;;;27.55;39.58
29371;BME280;16357;52.188;7.838;2022-08-21T09:59:14;100852.16;;;27.58;38.86
29371;BME280;16357;52.188;7.838;2022-08-21T10:01:51;100856.59;;;27.65;38.92
29371;BME280;16357;52.188;7.838;2022-08-21T10:04:30;100851.69;;;27.72;38.88
29371;BME280;16357;52.188;7.838;2022-08-21T10:07:11;100850.66;;;27.83;38.57
29371;BME280;16357;52.188;7.838;2022-08-21T10:09:38;100851.81;;;27.92;37.99
29371;BME280;16357;52.188;7.838;2022-08-21T10:12:21;100858.78;;;28.10;38.60
29371;BME280;16357;52.188;7.838;2022-08-21T10:17:46;100851.41;;;28.36;37.42
29371;BME280;16357;52.188;7.838;2022-08-21T10:20:51;100837.66;;;28.52;37.64
29371;BME280;16357;52.188;7.838;2022-08-21T10:23:36;100837.94;;;28.65;36.85
29371;BME280;16357;52.188;7.838;2022-08-21T10:26:09;100834.34;;;28.75;36.20
29371;BME280;16357;52.188;7.838;2022-08-21T10:28:45;100844.88;;;28.88;35.75
29371;BME280;16357;52.188;7.838;2022-08-21T10:43:18;100834.34;;;29.01;35.13
29371;BME280;16357;52.188;7.838;2022-08-21T10:45:37;100834.91;;;28.98;34.93
29371;BME280;16357;52.188;7.838;2022-08-21T10:48:07;100829.66;;;28.91;34.21
29371;BME280;16357;52.188;7.838;2022-08-21T10:50:59;100828.00;;;28.85;35.27
29371;BME280;16357;52.188;7.838;2022-08-21T10:53:39;100826.34;;;28.79;34.26
29371;BME280;16357;52.188;7.838;2022-08-21T10:56:15;100818.06;;;28.74;34.78
29371;BME280;16357;52.188;7.838;2022-08-21T10:58:53;100812.53;;;28.69;34.66
29371;BME280;16357;52.188;7.838;2022-08-21T11:01:28;100815.88;;;28.65;34.66
29371;BME280;16357;52.188;7.838;2022-08-21T11:04:11;100815.56;;;28.62;35.28
29371;BME280;16357;52.188;7.838;2022-08-21T11:06:44;100819.44;;;28.61;34.69
29371;BME280;16357;52.188;7.838;2022-08-21T11:09:18;100818.63;;;28.60;35.14
29371;BME280;16357;52.188;7.838;2022-08-21T11:11:54;100813.66;;;28.62;34.56
29371;BME280;16357;52.188;7.838;2022-08-21T11:14:41;100831.88;;;28.63;35.01
29371;BME280;16357;52.188;7.838;2022-08-21T11:17:19;100827.16;;;28.64;34.92
29371;BME280;16357;52.188;7.838;2022-08-21T11:19:48;100829.09;;;28.63;34.77
29371;BME280;16357;52.188;7.838;2022-08-21T11:22:38;100820.56;;;28.65;35.36
29371;BME280;16357;52.188;7.838;2022-08-21T11:25:15;100831.59;;;28.65;34.95
29371;BME280;16357;52.188;7.838;2022-08-21T11:27:49;100821.66;;;28.64;34.71
29371;BME280;16357;52.188;7.838;2022-08-21T11:30:18;100826.59;;;28.62;33.79
29371;BME280;16357;52.188;7.838;2022-08-21T11:35:55;100825.22;;;28.64;34.67
29371;BME280;16357;52.188;7.838;2022-08-21T11:41:29;100829.13;;;28.74;34.52
29371;BME280;16357;52.188;7.838;2022-08-21T11:44:04;100822.78;;;28.78;34.25
29371;BME280;16357;52.188;7.838;2022-08-21T11:46:53;100828.00;;;28.85;34.44
29371;BME280;16357;52.188;7.838;2022-08-21T11:49:38;100831.88;;;28.89;33.17
29371;BME280;16357;52.188;7.838;2022-08-21T11:52:28;100836.03;;;28.92;33.56
29371;BME280;16357;52.188;7.838;2022-08-21T11:55:16;100839.88;;;28.91;32.97
29371;BME280;16357;52.188;7.838;2022-08-21T11:57:56;100832.44;;;28.86;32.70
29371;BME280;16357;52.188;7.838;2022-08-21T12:00:35;100835.47;;;28.84;32.56
29371;BME280;16357;52.188;7.838;2022-08-21T12:05:58;100830.50;;;28.81;33.05
29371;BME280;16357;52.188;7.838;2022-08-21T12:08:38;100823.31;;;28.80;32.42
29371;BME280;16357;52.188;7.838;2022-08-21T12:13:51;100824.41;;;28.79;32.14
29371;BME280;16357;52.188;7.838;2022-08-21T12:16:30;100825.81;;;28.82;32.85
29371;BME280;16357;52.188;7.838;2022-08-21T12:19:10;100828.00;;;28.85;32.06
29371;BME280;16357;52.188;7.838;2022-08-21T12:24:33;100834.34;;;28.91;30.99
29371;BME280;16357;52.188;7.838;2022-08-21T12:29:48;100829.38;;;28.93;31.37
29371;BME280;16357;52.188;7.838;2022-08-21T12:35:01;100820.28;;;28.92;31.94
29371;BME280;16357;52.188;7.838;2022-08-21T12:37:38;100817.22;;;28.94;31.19
29371;BME280;16357;52.188;7.838;2022-08-21T12:40:43;100814.19;;;28.95;31.78
29371;BME280;16357;52.188;7.838;2022-08-21T12:43:15;100824.41;;;28.95;30.75
29371;BME280;16357;52.188;7.838;2022-08-21T12:45:47;100821.09;;;28.93;30.69
29371;BME280;16357;52.188;7.838;2022-08-21T12:48:23;100813.06;;;28.91;30.39
29371;BME280;16357;52.188;7.838;2022-08-21T12:50:54;100814.50;;;28.88;31.41
29371;BME280;16357;52.188;7.838;2022-08-21T12:53:37;100814.50;;;28.88;31.77
29371;BME280;16357;52.188;7.838;2022-08-21T12:56:12;100828.00;;;28.90;30.75
29371;BME280;16357;52.188;7.838;2022-08-21T12:58:48;100825.81;;;28.92;30.90
29371;BME280;16357;52.188;7.838;2022-08-21T13:03:46;100805.91;;;28.95;31.53
29371;BME280;16357;52.188;7.838;2022-08-21T13:06:36;100816.13;;;29.00;31.04
29371;BME280;16357;52.188;7.838;2022-08-21T13:09:08;100810.88;;;29.03;30.54
29371;BME280;16357;52.188;7.838;2022-08-21T13:11:36;100805.94;;;29.05;30.45
29371;BME280;16357;52.188;7.838;2022-08-21T13:14:43;100817.53;;;29.07;30.20
29371;BME280;16357;52.188;7.838;2022-08-21T13:17:14;100811.19;;;29.07;30.76
29371;BME280;16357;52.188;7.838;2022-08-21T13:20:24;100814.47;;;29.09;31.31
29371;BME280;16357;52.188;7.838;2022-08-21T13:22:51;100810.63;;;29.10;30.80
29371;BME280;16357;52.188;7.838;2022-08-21T13:25:20;100811.16;;;29.12;30.57
29371;BME280;16357;52.188;7.838;2022-08-21T13:28:08;100818.63;;;29.17;31.75
29371;BME280;16357;52.188;7.838;2022-08-21T13:30:39;100810.59;;;29.20;31.25
29371;BME280;16357;52.188;7.838;2022-08-21T13:33:09;100814.47;;;29.24;30.68
29371;BME280;16357;52.188;7.838;2022-08-21T13:38:29;100810.28;;;29.32;30.69
29371;BME280;16357;52.188;7.838;2022-08-21T13:40:59;100814.69;;;29.33;30.98
29371;BME280;16357;52.188;7.838;2022-08-21T13:43:31;100813.31;;;29.36;31.11
29371;BME280;16357;52.188;7.838;2022-08-21T13:46:00;100818.31;;;29.39;30.46
29371;BME280;16357;52.188;7.838;2022-08-21T13:48:30;100829.63;;;29.42;30.10
29371;BME280;16357;52.188;7.838;2022-08-21T13:50:59;100821.31;;;29.42;29.96
29371;BME280;16357;52.188;7.838;2022-08-21T13:56:00;100818.03;;;29.35;29.82
29371;BME280;16357;52.188;7.838;2022-08-21T13:58:33;100821.63;;;29.30;30.31
29371;BME280;16357;52.188;7.838;2022-08-21T14:01:00;100812.50;;;29.25;29.91
29371;BME280;16357;52.188;7.838;2022-08-21T14:03:35;100822.75;;;29.19;29.63
29371;BME280;16357;52.188;7.838;2022-08-21T14:06:11;100811.16;;;29.17;30.81
29371;BME280;16357;52.188;7.838;2022-08-21T14:08:39;100819.16;;;29.14;31.10
29371;BME280;16357;52.188;7.838;2022-08-21T14:11:11;100820.56;;;29.16;30.63
29371;BME280;16357;52.188;7.838;2022-08-21T14:13:44;100823.88;;;29.18;29.60
29371;BME280;16357;52.188;7.838;2022-08-21T14:16:20;100823.88;;;29.18;30.14